Time;durP1;ratioP1;P1;durP2;ratioP2;P2;SDS_P1;SDS_P2;PMS_P1;PMS_P2;Temp;Humidity;BMP_temperature;BMP_pressure;BME280_temperature;BME280_humidity;BME280_pressure;Samples;Min_cycle;Max_cycle;Signal;HPM_P1;HPM_P2
2021/10/20 00:02:16;;;;;;;8.90;5.53;;;18.40;91.70;;;;;;8335807;28;20438;-75
2021/10/20 00:06:17;;;;;;;5.00;4.57;;;18.30;91.70;;;;;;8332074;28;20690;-75
2021/10/20 00:10:20;;;;;;;5.30;4.70;;;18.30;91.80;;;;;;8319446;28;20449;-75
2021/10/20 00:14:21;;;;;;;5.67;5.07;;;18.30;91.70;;;;;;8332159;28;20523;-75
2021/10/20 00:18:21;;;;;;;5.53;4.00;;;18.20;91.60;;;;;;8304885;28;20418;-75
2021/10/20 00:22:22;;;;;;;4.90;4.10;;;18.10;91.60;;;;;;8317096;28;20198;-75
2021/10/20 00:26:23;;;;;;;9.00;4.77;;;18.10;91.50;;;;;;8321075;28;20197;-75
2021/10/20 00:30:25;;;;;;;5.30;4.40;;;18.20;91.00;;;;;;8323962;28;20183;-76
2021/10/20 00:34:25;;;;;;;4.90;4.07;;;18.50;90.50;;;;;;8310331;28;20893;-75
2021/10/20 00:38:26;;;;;;;4.97;4.40;;;18.80;90.00;;;;;;8351641;28;20479;-75
2021/10/20 00:42:27;;;;;;;8.23;4.83;;;19.00;89.70;;;;;;8322210;28;20195;-75
2021/10/20 00:46:29;;;;;;;4.40;4.10;;;19.10;89.80;;;;;;8319819;28;20202;-76
2021/10/20 00:50:29;;;;;;;8.40;4.03;;;19.00;90.00;;;;;;8325914;28;20243;-75
2021/10/20 00:54:30;;;;;;;7.03;5.60;;;19.00;90.30;;;;;;8306363;28;20415;-75
2021/10/20 00:58:31;;;;;;;7.30;5.77;;;18.80;90.40;;;;;;8318262;28;20677;-76
2021/10/20 01:02:31;;;;;;;5.67;4.70;;;18.70;90.50;;;;;;8349738;22;20690;-76
2021/10/20 01:06:34;;;;;;;5.20;4.80;;;18.70;90.40;;;;;;8382744;28;20182;-76
2021/10/20 01:10:34;;;;;;;7.63;5.80;;;18.70;90.40;;;;;;8364930;28;20203;-76
2021/10/20 01:14:36;;;;;;;4.80;4.30;;;18.70;90.30;;;;;;8366298;28;20428;-77
2021/10/20 01:18:36;;;;;;;6.50;5.27;;;18.70;90.30;;;;;;8368038;28;20194;-76
2021/10/20 01:22:37;;;;;;;9.10;6.40;;;18.60;90.30;;;;;;8368164;28;20417;-78
2021/10/20 01:26:38;;;;;;;6.30;5.63;;;18.50;90.40;;;;;;8372117;28;20171;-78
2021/10/20 01:30:39;;;;;;;6.13;5.37;;;18.50;90.30;;;;;;8379315;28;20198;-76
2021/10/20 01:34:39;;;;;;;6.60;5.30;;;18.40;90.30;;;;;;8380021;28;20182;-77
2021/10/20 01:38:40;;;;;;;5.57;4.40;;;18.40;90.30;;;;;;8367306;28;20197;-77
2021/10/20 01:42:41;;;;;;;6.50;5.10;;;18.40;90.40;;;;;;8367207;28;20254;-77
2021/10/20 01:46:41;;;;;;;7.17;5.57;;;18.30;90.40;;;;;;8366680;28;20186;-78
2021/10/20 01:50:42;;;;;;;9.90;5.40;;;18.30;90.30;;;;;;8382433;28;20194;-76
2021/10/20 01:54:43;;;;;;;9.83;6.00;;;18.30;90.30;;;;;;8365990;28;20606;-77
2021/10/20 01:58:45;;;;;;;6.70;5.10;;;18.20;90.40;;;;;;8363088;28;20185;-77
2021/10/20 02:02:45;;;;;;;8.47;5.83;;;18.10;90.40;;;;;;8363784;28;20222;-77
2021/10/20 02:06:46;;;;;;;7.77;5.57;;;18.10;90.40;;;;;;8362645;28;20432;-77
2021/10/20 02:10:47;;;;;;;9.93;6.27;;;18.00;90.30;;;;;;8327056;28;20202;-77
2021/10/20 02:14:48;;;;;;;5.13;4.30;;;18.10;90.30;;;;;;8331733;28;20292;-77
2021/10/20 02:18:48;;;;;;;8.50;5.47;;;18.00;90.20;;;;;;8335491;28;20178;-77
2021/10/20 02:22:49;;;;;;;7.27;5.43;;;18.00;90.20;;;;;;8329496;28;20633;-77
2021/10/20 02:26:50;;;;;;;5.30;4.80;;;18.00;90.10;;;;;;8348054;28;20487;-77
2021/10/20 02:30:51;;;;;;;6.87;5.50;;;18.00;89.90;;;;;;8331787;28;20484;-77
2021/10/20 02:34:52;;;;;;;9.83;5.40;;;17.90;90.00;;;;;;8347162;28;20180;-77
2021/10/20 02:38:52;;;;;;;9.20;5.97;;;17.80;90.00;;;;;;8331957;28;20417;-77
2021/10/20 02:42:53;;;;;;;6.47;5.30;;;17.80;90.00;;;;;;8330931;28;20171;-77
2021/10/20 02:46:54;;;;;;;10.83;6.30;;;17.70;90.10;;;;;;8331083;28;20171;-77
2021/10/20 02:50:54;;;;;;;12.27;5.83;;;17.60;90.20;;;;;;8348437;28;20576;-77
2021/10/20 02:54:55;;;;;;;7.80;6.70;;;17.60;90.30;;;;;;8331238;28;20176;-78
2021/10/20 02:58:56;;;;;;;10.60;5.47;;;17.60;90.30;;;;;;8346853;28;20189;-77
2021/10/20 03:02:56;;;;;;;7.70;5.90;;;17.50;90.40;;;;;;8329620;28;20265;-79
2021/10/20 03:06:58;;;;;;;9.57;6.10;;;17.50;90.40;;;;;;8331004;28;20431;-77
2021/10/20 03:10:58;;;;;;;5.67;5.17;;;17.50;90.40;;;;;;8340353;28;20213;-77
2021/10/20 03:14:59;;;;;;;6.50;5.80;;;17.40;90.40;;;;;;8342503;28;20513;-77
2021/10/20 03:19:00;;;;;;;9.17;6.10;;;17.40;90.50;;;;;;8338150;28;20241;-77
2021/10/20 03:23:00;;;;;;;8.87;5.47;;;17.40;90.50;;;;;;8338564;28;20551;-77
2021/10/20 03:27:01;;;;;;;7.70;5.80;;;17.40;90.60;;;;;;8354343;28;20179;-77
2021/10/20 03:31:02;;;;;;;6.60;5.97;;;17.30;90.70;;;;;;8358035;28;20205;-77
2021/10/20 03:35:04;;;;;;;11.43;6.20;;;17.30;90.60;;;;;;8338797;28;20182;-77
2021/10/20 03:39:04;;;;;;;6.50;5.10;;;17.40;90.50;;;;;;8339830;28;20611;-77
2021/10/20 03:43:06;;;;;;;8.37;6.00;;;17.40;90.80;;;;;;8336730;28;20478;-77
2021/10/20 03:47:06;;;;;;;13.60;6.20;;;17.40;90.40;;;;;;8335666;28;20216;-77
2021/10/20 03:51:07;;;;;;;7.07;5.30;;;17.50;90.60;;;;;;8337254;28;20456;-77
2021/10/20 03:55:08;;;;;;;4.70;4.13;;;17.50;90.50;;;;;;8337462;28;20179;-77
2021/10/20 03:59:08;;;;;;;8.60;5.43;;;17.60;90.50;;;;;;8336532;28;20176;-78
2021/10/20 04:03:09;;;;;;;6.83;5.37;;;17.60;90.50;;;;;;8336991;28;20241;-78
2021/10/20 04:07:10;;;;;;;7.40;5.70;;;17.60;90.50;;;;;;8336907;28;20185;-77
2021/10/20 04:11:10;;;;;;;10.47;6.03;;;17.60;90.40;;;;;;8336947;28;20204;-77
2021/10/20 04:15:13;;;;;;;7.27;5.60;;;17.50;90.50;;;;;;8335997;28;20476;-77
2021/10/20 04:19:14;;;;;;;7.67;6.30;;;17.40;90.60;;;;;;8337337;28;20452;-77
2021/10/20 04:23:15;;;;;;;5.33;4.93;;;17.40;90.70;;;;;;8334726;28;20455;-78
2021/10/20 04:27:15;;;;;;;6.60;5.93;;;17.30;90.90;;;;;;8336555;28;20174;-77
2021/10/20 04:31:16;;;;;;;8.73;6.40;;;17.30;90.90;;;;;;8336894;28;20957;-77
2021/10/20 04:35:22;;;;;;;7.43;5.03;;;17.20;90.80;;;;;;8336424;28;20176;-77
2021/10/20 04:39:23;;;;;;;6.37;5.37;;;17.20;90.80;;;;;;8340241;28;20166;-77
2021/10/20 04:43:23;;;;;;;6.10;5.60;;;17.20;90.90;;;;;;8353623;28;20447;-77
2021/10/20 04:47:24;;;;;;;9.83;5.50;;;17.20;91.00;;;;;;8335117;28;20178;-77
2021/10/20 04:51:25;;;;;;;6.20;5.60;;;17.30;91.00;;;;;;8338425;28;20201;-77
2021/10/20 04:55:25;;;;;;;9.90;4.83;;;17.30;90.90;;;;;;8351454;28;20679;-76
2021/10/20 04:59:31;;;;;;;6.20;5.37;;;17.30;90.90;;;;;;8335258;28;20179;-76
2021/10/20 05:03:31;;;;;;;7.07;5.57;;;17.40;90.80;;;;;;8335637;28;20717;-76
2021/10/20 05:07:32;;;;;;;7.50;5.70;;;17.40;90.90;;;;;;8333242;28;20417;-77
2021/10/20 05:11:33;;;;;;;6.17;5.17;;;17.40;90.90;;;;;;8334456;28;20214;-77
2021/10/20 05:15:33;;;;;;;7.50;5.80;;;17.30;90.90;;;;;;8333363;28;20175;-76
2021/10/20 05:19:34;;;;;;;5.87;4.60;;;17.30;91.00;;;;;;8333782;28;20229;-79
2021/10/20 05:23:35;;;;;;;8.40;4.87;;;17.30;91.10;;;;;;8334456;28;20634;-77
2021/10/20 05:27:35;;;;;;;6.83;5.43;;;17.30;91.00;;;;;;8337665;28;20174;-79
2021/10/20 05:31:36;;;;;;;9.10;5.80;;;17.20;91.10;;;;;;8340175;28;20208;-77
2021/10/20 05:35:37;;;;;;;11.23;5.33;;;17.10;91.10;;;;;;8342973;28;20253;-77
2021/10/20 05:39:37;;;;;;;6.60;5.30;;;17.10;91.10;;;;;;8344027;28;20191;-80
2021/10/20 05:43:38;;;;;;;9.03;7.00;;;17.10;91.20;;;;;;8336469;28;20731;-78
2021/10/20 05:47:38;;;;;;;6.77;5.13;;;17.10;91.20;;;;;;8340814;28;20513;-78
2021/10/20 05:51:39;;;;;;;6.40;4.80;;;17.10;91.40;;;;;;8341558;28;20198;-78
2021/10/20 05:55:40;;;;;;;7.70;6.30;;;17.10;91.30;;;;;;8342163;28;20191;-77
2021/10/20 05:59:41;;;;;;;6.23;5.60;;;17.20;91.10;;;;;;8340143;28;20619;-77
2021/10/20 06:03:42;;;;;;;8.43;5.57;;;17.20;91.30;;;;;;8335995;28;20460;-77
2021/10/20 06:07:44;;;;;;;6.20;5.30;;;17.30;91.30;;;;;;8349888;28;20271;-77
2021/10/20 06:11:45;;;;;;;5.87;4.87;;;17.30;91.30;;;;;;8349774;28;20615;-78
2021/10/20 06:15:45;;;;;;;5.70;5.10;;;17.30;91.20;;;;;;8334205;28;20435;-77
2021/10/20 06:19:48;;;;;;;7.23;5.20;;;17.30;91.10;;;;;;8336320;28;20622;-77
2021/10/20 06:23:51;;;;;;;9.27;5.07;;;17.30;91.10;;;;;;8339023;28;20178;-78
2021/10/20 06:27:51;;;;;;;7.00;5.03;;;17.30;91.10;;;;;;8334614;28;20758;-78
2021/10/20 06:31:53;;;;;;;5.83;5.23;;;17.30;91.20;;;;;;8335970;28;20518;-77
2021/10/20 06:35:54;;;;;;;10.00;4.97;;;17.20;91.10;;;;;;8341709;28;20179;-78
2021/10/20 06:39:55;;;;;;;7.83;6.33;;;17.20;91.40;;;;;;8340948;28;20421;-77
2021/10/20 06:43:56;;;;;;;6.17;5.57;;;17.20;91.30;;;;;;8338022;28;20462;-78
2021/10/20 06:47:56;;;;;;;8.67;5.47;;;17.10;91.30;;;;;;8345940;28;20202;-79
2021/10/20 06:51:57;;;;;;;8.30;5.63;;;17.10;91.30;;;;;;8346098;28;20211;-77
2021/10/20 06:55:58;;;;;;;8.87;4.87;;;17.10;91.40;;;;;;8346132;28;20182;-77
2021/10/20 06:59:59;;;;;;;9.10;5.00;;;17.10;91.60;;;;;;8342105;28;20182;-78
2021/10/20 07:03:59;;;;;;;8.40;6.07;;;17.10;91.70;;;;;;8342400;28;20455;-78
2021/10/20 07:08:00;;;;;;;13.50;6.57;;;17.10;91.70;;;;;;8340506;28;20255;-79
2021/10/20 07:12:00;;;;;;;8.97;6.30;;;17.10;91.80;;;;;;8340957;28;20234;-78
2021/10/20 07:16:01;;;;;;;8.40;6.13;;;17.10;91.90;;;;;;8341826;28;20179;-78
2021/10/20 07:20:02;;;;;;;6.73;6.10;;;17.10;91.90;;;;;;8341546;28;20184;-78
2021/10/20 07:24:03;;;;;;;7.00;6.40;;;17.20;92.10;;;;;;8341338;28;20612;-79
2021/10/20 07:28:04;;;;;;;7.37;5.90;;;17.20;92.10;;;;;;8346078;28;20424;-77
2021/10/20 07:32:05;;;;;;;7.53;6.20;;;17.30;92.10;;;;;;8347197;28;20457;-78
2021/10/20 07:36:06;;;;;;;8.40;6.37;;;17.40;92.20;;;;;;8347922;28;20548;-78
2021/10/20 07:40:08;;;;;;;11.27;6.07;;;17.50;92.20;;;;;;8343979;28;20480;-78
2021/10/20 07:44:09;;;;;;;7.50;5.80;;;17.50;92.30;;;;;;8340619;28;20179;-77
2021/10/20 07:48:10;;;;;;;9.23;6.63;;;17.60;92.10;;;;;;8334623;28;20536;-77
2021/10/20 07:52:10;;;;;;;7.07;5.70;;;17.70;92.10;;;;;;8354834;28;20290;-78
2021/10/20 07:56:11;;;;;;;9.87;6.57;;;17.80;91.80;;;;;;8342595;28;20175;-78
2021/10/20 08:00:12;;;;;;;12.70;6.47;;;17.90;91.90;;;;;;8355207;28;20191;-77
2021/10/20 08:04:13;;;;;;;8.43;5.90;;;17.90;91.80;;;;;;8360542;28;20222;-78
2021/10/20 08:08:13;;;;;;;14.10;6.70;;;18.00;91.70;;;;;;8344197;28;20429;-77
2021/10/20 08:12:17;;;;;;;10.30;6.70;;;17.90;91.80;;;;;;8345803;28;20191;-78
2021/10/20 08:16:17;;;;;;;9.50;5.83;;;17.90;91.80;;;;;;8347925;28;20183;-78
2021/10/20 08:20:21;;;;;;;8.23;6.20;;;17.90;91.90;;;;;;8347733;28;20410;-77
2021/10/20 08:24:21;;;;;;;9.97;6.87;;;17.90;92.10;;;;;;8356989;28;20179;-77
2021/10/20 08:28:22;;;;;;;7.60;5.97;;;18.00;92.10;;;;;;8357678;28;20500;-78
2021/10/20 08:32:22;;;;;;;8.80;7.63;;;18.00;92.10;;;;;;8343145;28;20229;-78
2021/10/20 08:36:23;;;;;;;7.80;6.60;;;18.10;92.00;;;;;;8361578;28;20184;-77
2021/10/20 08:40:26;;;;;;;9.10;6.73;;;18.10;92.20;;;;;;8337267;28;20207;-77
2021/10/20 08:44:31;;;;;;;7.57;6.90;;;18.20;92.10;;;;;;8336738;28;20167;-77
2021/10/20 08:48:32;;;;;;;7.97;6.67;;;18.20;92.10;;;;;;8337602;28;20761;-77
2021/10/20 08:52:33;;;;;;;9.47;6.70;;;18.20;92.10;;;;;;8337521;28;20454;-77
2021/10/20 08:56:35;;;;;;;7.80;6.83;;;18.20;92.20;;;;;;8352259;28;20749;-79
2021/10/20 09:00:36;;;;;;;13.07;6.67;;;18.30;92.30;;;;;;8350646;28;20414;-79
2021/10/20 09:04:36;;;;;;;7.60;6.40;;;18.40;92.10;;;;;;8348599;28;20492;-79
2021/10/20 09:08:48;;;;;;;8.10;6.10;;;18.60;91.80;;;;;;8347284;28;20340;-77
2021/10/20 09:12:49;;;;;;;7.90;6.67;;;18.70;91.90;;;;;;8344603;28;20275;-78
2021/10/20 09:16:49;;;;;;;11.70;6.70;;;18.80;91.90;;;;;;8350666;28;20508;-79
2021/10/20 09:20:51;;;;;;;8.90;6.80;;;19.20;91.40;;;;;;8339688;28;20176;-78
2021/10/20 09:24:52;;;;;;;8.23;6.00;;;19.50;91.10;;;;;;8355327;28;20172;-77
2021/10/20 09:28:52;;;;;;;8.07;6.27;;;19.50;90.70;;;;;;8348539;28;20406;-76
2021/10/20 09:32:56;;;;;;;7.97;6.80;;;19.50;91.20;;;;;;8344585;28;20201;-77
2021/10/20 09:36:59;;;;;;;7.80;6.63;;;19.50;91.10;;;;;;8344443;28;20172;-77
2021/10/20 09:41:04;;;;;;;9.30;7.40;;;19.50;91.20;;;;;;8351475;28;20437;-77
2021/10/20 09:45:05;;;;;;;13.50;7.50;;;19.60;91.10;;;;;;8359422;28;20419;-77
2021/10/20 09:49:16;;;;;;;8.60;6.73;;;19.50;91.20;;;;;;8370861;28;20427;-78
2021/10/20 09:53:18;;;;;;;10.40;7.67;;;19.50;91.00;;;;;;8359277;28;20461;-77
2021/10/20 09:57:29;;;;;;;9.23;6.40;;;19.40;91.40;;;;;;8359080;28;20468;-77
2021/10/20 10:01:30;;;;;;;7.23;6.53;;;19.30;91.50;;;;;;8358839;28;20483;-77
2021/10/20 10:05:31;;;;;;;9.47;7.43;;;19.30;91.70;;;;;;8359880;28;20452;-77
2021/10/20 10:09:32;;;;;;;10.43;7.63;;;19.30;91.80;;;;;;8375291;28;20422;-76
2021/10/20 10:13:42;;;;;;;10.30;7.67;;;19.30;91.80;;;;;;8358971;28;20450;-77
2021/10/20 10:17:44;;;;;;;11.50;7.83;;;19.40;91.80;;;;;;8358897;28;20183;-78
2021/10/20 10:21:46;;;;;;;11.30;8.63;;;19.40;91.60;;;;;;8359903;28;20455;-77
2021/10/20 10:26:00;;;;;;;8.27;7.07;;;19.50;91.90;;;;;;8361260;28;20484;-77
2021/10/20 10:30:00;;;;;;;7.80;7.00;;;19.70;91.80;;;;;;8361738;28;20410;-78
2021/10/20 10:34:02;;;;;;;6.47;5.87;;;20.70;91.10;;;;;;8353534;28;20961;-77
2021/10/20 10:38:05;;;;;;;8.07;6.50;;;21.80;90.10;;;;;;8361209;28;20188;-78
2021/10/20 10:42:06;;;;;;;6.70;5.90;;;22.70;87.90;;;;;;8358661;28;20422;-78
2021/10/20 10:46:15;;;;;;;7.70;5.70;;;22.80;85.80;;;;;;8376383;28;20426;-77
2021/10/20 10:50:16;;;;;;;8.27;6.90;;;22.50;87.40;;;;;;8362026;28;20228;-77
2021/10/20 10:54:37;;;;;;;8.33;7.53;;;22.00;87.50;;;;;;8358020;28;20636;-77
2021/10/20 10:59:13;;;;;;;7.70;6.90;;;21.70;88.60;;;;;;8343162;28;20176;-78
2021/10/20 11:03:21;;;;;;;8.63;6.70;;;21.40;89.40;;;;;;8311078;28;20473;-78
2021/10/20 11:07:25;;;;;;;12.07;7.83;;;21.20;90.10;;;;;;8341387;28;20376;-78
2021/10/20 11:11:26;;;;;;;11.83;9.20;;;20.90;90.30;;;;;;8343406;28;20500;-79
2021/10/20 11:15:28;;;;;;;8.73;7.83;;;20.80;90.70;;;;;;8345826;28;20416;-77
2021/10/20 11:19:30;;;;;;;10.30;7.83;;;20.70;91.20;;;;;;8339030;28;20172;-77
2021/10/20 11:23:31;;;;;;;10.93;6.73;;;20.60;92.10;;;;;;8339141;28;20411;-78
2021/10/20 11:27:34;;;;;;;11.10;8.43;;;20.40;92.40;;;;;;8337230;28;20419;-78
2021/10/20 11:31:57;;;;;;;8.90;7.90;;;20.20;92.60;;;;;;8342711;28;20467;-78
2021/10/20 11:35:58;;;;;;;8.50;7.27;;;20.10;93.20;;;;;;8342569;28;20936;-77
2021/10/20 11:40:02;;;;;;;8.90;8.00;;;20.00;93.70;;;;;;8353832;28;20393;-77
2021/10/20 11:44:03;;;;;;;7.13;6.43;;;19.90;94.00;;;;;;8345341;28;20168;-78
2021/10/20 11:48:04;;;;;;;10.00;7.47;;;19.80;94.30;;;;;;8345636;28;20509;-78
2021/10/20 11:52:06;;;;;;;8.47;7.70;;;19.70;94.50;;;;;;8346487;28;20199;-78
2021/10/20 11:56:11;;;;;;;8.07;6.50;;;19.70;94.80;;;;;;8347272;28;20421;-78
2021/10/20 12:00:12;;;;;;;6.47;5.87;;;19.60;95.20;;;;;;8345082;28;20415;-78
2021/10/20 12:04:13;;;;;;;6.83;6.00;;;19.60;95.00;;;;;;8347226;28;20472;-78
2021/10/20 12:08:14;;;;;;;5.90;4.80;;;19.50;94.90;;;;;;8362478;28;20419;-77
2021/10/20 12:12:17;;;;;;;5.57;5.07;;;19.50;94.70;;;;;;8337355;28;20226;-78
2021/10/20 12:16:20;;;;;;;5.90;5.30;;;19.70;95.10;;;;;;8357143;28;20248;-77
2021/10/20 12:20:21;;;;;;;5.97;5.37;;;19.80;95.50;;;;;;8341876;28;20469;-78
2021/10/20 12:24:23;;;;;;;5.30;4.83;;;19.90;95.30;;;;;;8348646;28;20414;-77
2021/10/20 12:28:27;;;;;;;5.37;4.97;;;20.00;95.00;;;;;;8344689;28;20553;-78
2021/10/20 12:32:31;;;;;;;5.03;4.73;;;20.10;94.90;;;;;;8339338;28;20455;-78
2021/10/20 12:36:34;;;;;;;7.37;5.63;;;20.10;94.90;;;;;;8349440;28;20491;-78
2021/10/20 12:40:35;;;;;;;4.87;4.47;;;20.10;94.30;;;;;;8339790;28;20415;-77
2021/10/20 12:44:36;;;;;;;5.27;4.83;;;20.00;94.60;;;;;;8340767;28;20430;-77
2021/10/20 12:48:36;;;;;;;5.40;4.47;;;19.90;94.60;;;;;;8343021;28;20761;-78
2021/10/20 12:52:40;;;;;;;4.83;4.33;;;19.90;94.70;;;;;;8354680;28;20551;-78
2021/10/20 12:56:40;;;;;;;5.30;4.80;;;19.80;94.70;;;;;;8359055;28;20235;-78
2021/10/20 13:00:43;;;;;;;5.87;4.07;;;19.70;94.70;;;;;;8346507;28;20963;-78
2021/10/20 13:04:51;;;;;;;5.17;4.43;;;19.70;94.80;;;;;;8343244;28;20230;-77
2021/10/20 13:08:52;;;;;;;4.47;4.10;;;19.80;94.40;;;;;;8350293;28;20422;-78
2021/10/20 13:13:00;;;;;;;4.83;4.43;;;20.00;94.50;;;;;;8356408;28;20471;-78
2021/10/20 13:17:01;;;;;;;3.50;3.20;;;20.10;94.00;;;;;;8355306;28;20427;-78
2021/10/20 13:21:02;;;;;;;5.30;3.77;;;20.20;94.00;;;;;;8359059;28;20439;-78
2021/10/20 13:25:04;;;;;;;4.30;3.90;;;20.20;93.80;;;;;;8362597;28;20180;-77
2021/10/20 13:29:04;;;;;;;4.10;3.80;;;20.10;93.90;;;;;;8347418;28;20421;-78
2021/10/20 13:33:07;;;;;;;4.87;4.47;;;20.10;94.00;;;;;;8351157;28;20461;-78
2021/10/20 13:37:08;;;;;;;9.67;5.00;;;20.10;94.00;;;;;;8348551;28;20202;-79
2021/10/20 13:41:08;;;;;;;6.73;4.63;;;20.00;94.00;;;;;;8353084;28;20907;-79
2021/10/20 13:45:09;;;;;;;5.63;4.63;;;20.00;94.30;;;;;;8355751;28;20428;-78
2021/10/20 13:49:10;;;;;;;4.80;4.37;;;20.00;94.40;;;;;;8369311;28;20179;-77
2021/10/20 13:53:10;;;;;;;4.30;3.90;;;20.00;94.40;;;;;;8346267;28;20195;-78
2021/10/20 13:57:11;;;;;;;9.07;3.53;;;20.10;94.40;;;;;;8359127;28;20491;-78
2021/10/20 14:01:12;;;;;;;3.60;3.30;;;20.20;94.30;;;;;;8339845;28;20175;-77
2021/10/20 14:05:13;;;;;;;3.67;2.70;;;20.20;94.10;;;;;;8336868;28;20277;-78
2021/10/20 14:09:14;;;;;;;5.33;3.60;;;20.10;94.00;;;;;;8362448;28;20187;-77
2021/10/20 14:13:15;;;;;;;6.33;3.83;;;20.10;94.30;;;;;;8344733;28;20451;-78
2021/10/20 14:17:18;;;;;;;4.00;3.47;;;20.00;94.60;;;;;;8350083;28;20701;-77
2021/10/20 14:21:19;;;;;;;6.40;3.60;;;19.90;94.70;;;;;;8349121;28;20430;-77
2021/10/20 14:25:20;;;;;;;3.30;3.10;;;19.90;95.10;;;;;;8334595;28;20922;-78
2021/10/20 14:29:21;;;;;;;5.30;3.10;;;19.80;95.10;;;;;;8342351;28;20738;-77
2021/10/20 14:33:21;;;;;;;7.37;4.40;;;19.80;95.10;;;;;;8333758;28;20206;-77
2021/10/20 14:37:22;;;;;;;7.87;4.93;;;19.90;95.10;;;;;;8337141;28;20668;-78
2021/10/20 14:41:22;;;;;;;5.70;4.10;;;20.00;94.90;;;;;;8339372;28;20233;-79
2021/10/20 14:45:23;;;;;;;5.00;3.80;;;20.10;94.60;;;;;;8348840;28;20200;-79
2021/10/20 14:49:24;;;;;;;8.60;3.83;;;20.10;94.30;;;;;;8365733;28;20173;-78
2021/10/20 14:53:24;;;;;;;2.60;2.40;;;20.10;94.40;;;;;;8354089;28;20275;-78
2021/10/20 14:57:25;;;;;;;2.70;2.43;;;20.10;94.30;;;;;;8346729;28;20263;-78
2021/10/20 15:01:27;;;;;;;2.20;2.10;;;20.10;94.30;;;;;;8349918;28;20208;-77
2021/10/20 15:05:28;;;;;;;2.60;2.03;;;20.10;94.50;;;;;;8351351;28;20314;-77
2021/10/20 15:09:28;;;;;;;2.60;2.40;;;20.00;94.40;;;;;;8346013;28;20447;-78
2021/10/20 15:13:30;;;;;;;2.30;2.10;;;20.00;94.30;;;;;;8362976;28;20591;-79
2021/10/20 15:17:30;;;;;;;2.97;2.73;;;19.90;94.30;;;;;;8350441;28;20193;-77
2021/10/20 15:21:34;;;;;;;2.60;2.50;;;19.90;94.20;;;;;;8352925;28;20753;-78
2021/10/20 15:25:36;;;;;;;2.60;2.50;;;19.80;94.10;;;;;;8359916;28;20176;-78
2021/10/20 15:29:36;;;;;;;3.33;2.97;;;19.70;94.20;;;;;;8344964;28;20473;-78
2021/10/20 15:33:37;;;;;;;7.00;3.10;;;19.70;94.10;;;;;;8343799;28;20519;-79
2021/10/20 15:37:42;;;;;;;3.07;2.77;;;19.70;93.90;;;;;;8342922;28;20183;-79
2021/10/20 15:41:43;;;;;;;2.70;2.50;;;19.70;94.10;;;;;;8344105;28;20183;-79
2021/10/20 15:45:44;;;;;;;3.50;3.20;;;19.60;94.00;;;;;;8344812;28;20926;-79
2021/10/20 15:49:47;;;;;;;3.80;3.40;;;19.50;94.10;;;;;;8356711;28;20168;-78
2021/10/20 15:53:47;;;;;;;2.80;2.60;;;19.50;94.10;;;;;;8360333;28;20546;-77
2021/10/20 15:57:48;;;;;;;3.60;3.30;;;19.50;94.20;;;;;;8346255;28;20422;-78
2021/10/20 16:01:49;;;;;;;3.73;3.50;;;19.50;94.20;;;;;;8339806;28;20184;-77
2021/10/20 16:05:49;;;;;;;6.23;3.37;;;19.40;94.30;;;;;;8338564;28;20215;-78
2021/10/20 16:09:50;;;;;;;3.77;3.47;;;19.40;94.40;;;;;;8339192;28;20180;-80
2021/10/20 16:13:51;;;;;;;4.30;3.57;;;19.30;94.60;;;;;;8347357;28;20199;-78
2021/10/20 16:17:52;;;;;;;4.07;3.43;;;19.20;94.60;;;;;;8338301;28;20182;-78
2021/10/20 16:21:53;;;;;;;5.90;4.10;;;19.20;94.60;;;;;;8337943;28;20422;-78
2021/10/20 16:25:55;;;;;;;5.10;4.60;;;19.20;94.70;;;;;;8341485;28;20168;-78
2021/10/20 16:29:56;;;;;;;4.67;4.20;;;19.10;95.00;;;;;;8342443;28;20596;-79
2021/10/20 16:33:57;;;;;;;4.80;3.73;;;19.10;94.90;;;;;;8344856;28;20477;-79
2021/10/20 16:37:58;;;;;;;5.23;4.83;;;19.00;95.10;;;;;;8347226;28;20200;-79
2021/10/20 16:41:58;;;;;;;9.53;4.97;;;19.00;95.10;;;;;;8356695;28;20433;-78
2021/10/20 16:46:00;;;;;;;5.60;4.20;;;18.90;95.20;;;;;;8341436;28;20680;-79
2021/10/20 16:50:06;;;;;;;5.93;4.50;;;18.90;95.20;;;;;;8342898;28;20432;-78
2021/10/20 16:54:08;;;;;;;11.40;5.07;;;18.90;95.30;;;;;;8351809;28;20208;-77
2021/10/20 16:58:09;;;;;;;7.47;5.97;;;18.90;95.30;;;;;;8348212;28;20771;-77
2021/10/20 17:02:09;;;;;;;5.73;4.47;;;18.80;95.10;;;;;;8357578;28;20434;-78
2021/10/20 17:06:10;;;;;;;7.13;4.87;;;18.80;95.20;;;;;;8340125;28;20172;-80
2021/10/20 17:10:14;;;;;;;6.20;4.63;;;18.90;95.20;;;;;;8340461;28;20587;-77
2021/10/20 17:14:15;;;;;;;7.80;5.77;;;18.90;95.30;;;;;;8341406;28;20502;-79
2021/10/20 17:18:15;;;;;;;6.70;4.57;;;18.80;95.30;;;;;;8340844;28;20941;-79
2021/10/20 17:22:16;;;;;;;3.90;3.70;;;18.80;95.30;;;;;;8345330;28;20182;-79
2021/10/20 17:26:17;;;;;;;5.90;4.07;;;18.80;95.30;;;;;;8347382;28;20172;-77
2021/10/20 17:30:19;;;;;;;4.27;3.87;;;18.80;95.40;;;;;;8346452;28;20168;-80
2021/10/20 17:34:20;;;;;;;14.00;11.90;;;18.80;95.50;;;;;;8340903;28;20512;-77
2021/10/20 17:38:20;;;;;;;7.40;5.83;;;18.80;95.60;;;;;;8339074;28;20466;-79
2021/10/20 17:42:23;;;;;;;4.50;4.10;;;18.70;95.60;;;;;;8352895;28;20417;-79
2021/10/20 17:46:23;;;;;;;4.73;4.33;;;18.70;95.70;;;;;;8375196;28;20690;-80
2021/10/20 17:50:24;;;;;;;7.67;5.10;;;18.60;95.60;;;;;;8375266;28;20413;-79
2021/10/20 17:54:25;;;;;;;7.03;5.43;;;18.70;95.60;;;;;;8373505;28;20286;-79
2021/10/20 17:58:26;;;;;;;6.57;5.03;;;18.70;95.60;;;;;;8371233;28;20187;-77
2021/10/20 18:02:26;;;;;;;6.13;4.80;;;18.70;95.60;;;;;;8372563;28;20257;-80
2021/10/20 18:06:29;;;;;;;7.90;4.80;;;18.70;95.60;;;;;;8388665;28;20175;-77
2021/10/20 18:10:31;;;;;;;7.00;4.10;;;18.70;95.70;;;;;;8376635;28;20178;-78
2021/10/20 18:14:32;;;;;;;10.60;5.50;;;18.70;95.80;;;;;;8378705;28;20449;-77
2021/10/20 18:18:35;;;;;;;7.03;4.63;;;18.70;95.80;;;;;;8379690;28;20491;-77
2021/10/20 18:22:38;;;;;;;13.50;5.70;;;18.70;95.80;;;;;;8394083;28;20172;-77
2021/10/20 18:26:39;;;;;;;10.87;5.57;;;18.70;95.80;;;;;;8405335;28;20497;-78
2021/10/20 18:30:42;;;;;;;5.70;5.20;;;18.60;95.90;;;;;;8385870;28;20425;-79
2021/10/20 18:34:43;;;;;;;6.97;6.13;;;18.60;95.90;;;;;;8374062;28;20575;-81
2021/10/20 18:38:43;;;;;;;6.43;5.63;;;18.60;96.00;;;;;;8371761;28;20425;-78
2021/10/20 18:42:44;;;;;;;8.83;5.97;;;18.50;95.90;;;;;;8376390;28;20183;-79
2021/10/20 18:46:45;;;;;;;10.00;6.50;;;18.60;96.00;;;;;;8378188;28;20171;-79
2021/10/20 18:50:46;;;;;;;9.47;5.80;;;18.60;95.90;;;;;;8391849;28;20451;-79
2021/10/20 18:54:48;;;;;;;13.23;6.17;;;18.70;95.80;;;;;;8392502;28;20804;-80
2021/10/20 18:58:48;;;;;;;15.63;6.30;;;18.80;95.80;;;;;;8391835;28;20171;-77
2021/10/20 19:02:50;;;;;;;10.50;6.63;;;18.70;95.90;;;;;;8376823;28;20468;-78
2021/10/20 19:06:54;;;;;;;13.40;7.50;;;18.80;96.10;;;;;;8377443;28;20167;-78
2021/10/20 19:10:54;;;;;;;14.40;6.50;;;18.80;96.20;;;;;;8375998;28;20952;-81
2021/10/20 19:14:55;;;;;;;8.80;6.97;;;18.80;96.30;;;;;;8377330;28;20445;-78
2021/10/20 19:18:56;;;;;;;10.23;6.63;;;18.80;96.30;;;;;;8375921;28;20607;-78
2021/10/20 19:22:57;;;;;;;10.70;7.00;;;18.90;96.40;;;;;;8374359;28;20187;-78
2021/10/20 19:26:57;;;;;;;7.80;6.40;;;18.80;96.40;;;;;;8374993;28;20239;-79
2021/10/20 19:30:58;;;;;;;8.67;6.30;;;18.80;96.30;;;;;;8392290;28;20650;-79
2021/10/20 19:34:59;;;;;;;8.03;6.07;;;18.90;96.20;;;;;;8383368;28;20270;-79
2021/10/20 19:39:00;;;;;;;7.87;5.97;;;18.90;96.10;;;;;;8374944;28;20175;-79
2021/10/20 19:43:02;;;;;;;8.63;6.40;;;18.90;96.10;;;;;;8374411;28;20171;-77
2021/10/20 19:47:06;;;;;;;9.37;6.30;;;18.90;96.00;;;;;;8391101;28;20171;-78
2021/10/20 19:51:07;;;;;;;8.10;6.50;;;18.90;96.10;;;;;;8373773;28;20989;-79
2021/10/20 19:55:08;;;;;;;7.10;5.93;;;18.80;96.10;;;;;;8389979;28;20479;-77
2021/10/20 19:59:08;;;;;;;6.20;5.53;;;18.90;96.10;;;;;;8372845;28;20171;-78
2021/10/20 20:03:09;;;;;;;6.50;5.23;;;18.90;96.10;;;;;;8372970;28;20971;-79
2021/10/20 20:07:10;;;;;;;7.20;6.57;;;19.00;96.00;;;;;;8377173;28;20173;-79
2021/10/20 20:11:11;;;;;;;10.70;6.33;;;19.00;96.00;;;;;;8386279;28;20681;-77
2021/10/20 20:15:11;;;;;;;9.13;4.97;;;19.10;95.90;;;;;;8377259;28;20250;-78
2021/10/20 20:19:13;;;;;;;8.07;5.07;;;19.10;95.90;;;;;;8374322;28;20221;-77
2021/10/20 20:23:15;;;;;;;8.33;5.83;;;19.20;95.90;;;;;;8388479;28;20242;-77
2021/10/20 20:27:16;;;;;;;7.10;5.70;;;19.20;95.80;;;;;;8374462;28;20436;-79
2021/10/20 20:31:17;;;;;;;5.67;5.03;;;19.20;95.80;;;;;;8372521;28;20768;-79
2021/10/20 20:35:18;;;;;;;8.17;6.43;;;19.20;95.70;;;;;;8373087;28;20171;-77
2021/10/20 20:39:18;;;;;;;8.33;5.00;;;19.20;95.60;;;;;;8374583;28;20606;-78
2021/10/20 20:43:19;;;;;;;6.67;6.03;;;19.10;95.60;;;;;;8351093;28;20619;-78
2021/10/20 20:47:20;;;;;;;8.20;4.90;;;19.10;95.60;;;;;;8342150;28;20183;-78
2021/10/20 20:51:20;;;;;;;36.47;6.90;;;19.10;95.60;;;;;;8346631;28;20219;-78
2021/10/20 20:55:21;;;;;;;7.77;5.20;;;19.00;95.60;;;;;;8339718;28;20240;-79